Straumbas — LIOD — position and weather

sailwx.info

Track history (hours):
 
Tides and Currents Weather Stations Pressure Air Temp Water Temp Dewpoint Dewpoint Depression Visibility Wind Speed Wind Dir Waves Ship Positions

Straumbas

Last reported at 2017-Jan-16 22:33 UTC. Time now 2017-Jan-17 02:39 UTC.
Position N 67°31' E 014°29'.

Length 38 m; draft 5.5 m.

Type: Fishing. MMSI: 258035000.

Date/timePositionNaut miles runAvg speedWind from/ knotsBaromVisibWave heightAir tempDewpointWater temp
2017-Jan-16 22:33N 67°31' E 014°29'8 7.8
2017-Jan-16 21:33N 67°23' E 014°25'8 7.9
2017-Jan-16 20:33N 67°17' E 014°13'8 7.9
2017-Jan-16 19:33N 67°10' E 014°03'8 8.0
2017-Jan-16 18:31N 67°03' E 013°51'8 7.9
2017-Jan-16 17:33N 66°59' E 013°34'33 7.9
2017-Jan-16 13:24N 66°29' E 012°59'8 9.2
2017-Jan-16 12:33N 66°21' E 012°57'72 8.0
2017-Jan-16 03:33N 65°14' E 011°55'9 8.7
2017-Jan-16 02:33N 65°06' E 011°48'8 8.3
2017-Jan-16 01:33N 64°59' E 011°36'9 8.5
2017-Jan-16 00:33N 64°54' E 011°20'9 9.1
2017-Jan-15 23:33N 64°47' E 011°05'74 6.8
2017-Jan-15 12:33N 63°48' E 009°20'8 7.7
2017-Jan-15 11:33N 63°41' E 009°16'8 8.3
2017-Jan-15 10:33N 63°33' E 009°14'38 9.2
2017-Jan-15 06:27N 63°14' E 008°01'8 8.6
2017-Jan-15 05:33N 63°10' E 007°46'9 8.6
2017-Jan-15 04:33N 63°06' E 007°30'8 8.2
2017-Jan-15 03:33N 63°02' E 007°14'16 7.7
2017-Jan-15 01:29N 62°54' E 006°44'8 8.2
2017-Jan-15 00:33N 62°47' E 006°36'9 0.2
2017-Jan-13 11:06N 62°40' E 006°24'7 9.4
2017-Jan-13 10:24N 62°45' E 006°32'9 9.0
2017-Jan-13 09:26N 62°52' E 006°43'14 7.4
2017-Jan-13 07:33N 63°01' E 007°07'7 7.1
2017-Jan-13 06:33N 63°04' E 007°21'7 7.3
2017-Jan-13 05:33N 63°07' E 007°35'8 7.7
2017-Jan-13 04:33N 63°11' E 007°50'8 8.3
2017-Jan-13 03:33N 63°16' E 008°06'28 8.6
2017-Jan-13 00:19N 63°29' E 009°00'6 8.2
2017-Jan-12 23:33N 63°32' E 009°13'8 7.7
2017-Jan-12 22:33N 63°40' E 009°15'79 7.7
2017-Jan-12 12:25N 64°44' E 010°58'7 8.4
2017-Jan-12 11:33N 64°49' E 011°10'9 8.6
2017-Jan-12 10:33N 64°55' E 011°24'9 8.7
2017-Jan-12 09:33N 65°01' E 011°40'7 7.4
2017-Jan-12 08:33N 65°07' E 011°49'8 7.6
2017-Jan-12 07:32N 65°15' E 011°55'67 8.1
2017-Jan-11 23:19N 66°17' E 012°55'7 8.6
2017-Jan-11 22:28N 66°24' E 012°58'47 7.9
2017-Jan-11 16:31N 67°05' E 013°55'8 8.6
2017-Jan-11 15:33N 67°12' E 014°06'9 9.2
2017-Jan-11 14:33N 67°20' E 014°19'9 8.6
2017-Jan-11 13:33N 67°28' E 014°28'118 8.3
2017-Jan-10 23:18N 69°06' E 017°27'7 8.9
2017-Jan-10 22:33N 69°08' E 017°44'  
2017-Jan-08 04:27N 69°19' E 017°59'8 8.7
2017-Jan-08 03:33N 69°11' E 018°01'9 9.1
2017-Jan-08 02:33N 69°08' E 017°38'13 8.9
2017-Jan-08 01:08N 68°59' E 017°12'18 9.3
2017-Jan-07 23:11N 68°44' E 016°44'91 8.5
2017-Jan-07 12:33N 67°28' E 014°29'9 8.8
2017-Jan-07 11:33N 67°20' E 014°20'9 9.0
2017-Jan-07 10:33N 67°13' E 014°08'10 9.7
2017-Jan-07 09:33N 67°04' E 013°54'10 9.3
2017-Jan-07 08:30N 66°58' E 013°35'29 7.4
2017-Jan-07 04:32N 66°32' E 012°58'9 8.8
2017-Jan-07 03:33N 66°24' E 012°59'  
Track history (hours):
 
Tides and Currents Weather Stations Pressure Air Temp Water Temp Dewpoint Dewpoint Depression Visibility Wind Speed Wind Dir Waves Ship Positions

Straumbas

Last reported at 2017-Jan-16 22:33 UTC. Time now 2017-Jan-17 02:39 UTC.
Position N 67°31' E 014°29'.

Length 38 m; draft 5.5 m.

Type: Fishing. MMSI: 258035000.

Date/timePositionNaut miles runAvg speedWind from/ knotsBaromVisibWave heightAir tempDewpointWater temp
2017-Jan-16 22:33N 67°31' E 014°29'8 7.8
2017-Jan-16 21:33N 67°23' E 014°25'8 7.9
2017-Jan-16 20:33N 67°17' E 014°13'8 7.9
2017-Jan-16 19:33N 67°10' E 014°03'8 8.0
2017-Jan-16 18:31N 67°03' E 013°51'8 7.9
2017-Jan-16 17:33N 66°59' E 013°34'33 7.9
2017-Jan-16 13:24N 66°29' E 012°59'8 9.2
2017-Jan-16 12:33N 66°21' E 012°57'72 8.0
2017-Jan-16 03:33N 65°14' E 011°55'9 8.7
2017-Jan-16 02:33N 65°06' E 011°48'8 8.3
2017-Jan-16 01:33N 64°59' E 011°36'9 8.5
2017-Jan-16 00:33N 64°54' E 011°20'9 9.1
2017-Jan-15 23:33N 64°47' E 011°05'74 6.8
2017-Jan-15 12:33N 63°48' E 009°20'8 7.7
2017-Jan-15 11:33N 63°41' E 009°16'8 8.3
2017-Jan-15 10:33N 63°33' E 009°14'38 9.2
2017-Jan-15 06:27N 63°14' E 008°01'8 8.6
2017-Jan-15 05:33N 63°10' E 007°46'9 8.6
2017-Jan-15 04:33N 63°06' E 007°30'8 8.2
2017-Jan-15 03:33N 63°02' E 007°14'16 7.7
2017-Jan-15 01:29N 62°54' E 006°44'8 8.2
2017-Jan-15 00:33N 62°47' E 006°36'9 0.2
2017-Jan-13 11:06N 62°40' E 006°24'7 9.4
2017-Jan-13 10:24N 62°45' E 006°32'9 9.0
2017-Jan-13 09:26N 62°52' E 006°43'14 7.4
2017-Jan-13 07:33N 63°01' E 007°07'7 7.1
2017-Jan-13 06:33N 63°04' E 007°21'7 7.3
2017-Jan-13 05:33N 63°07' E 007°35'8 7.7
2017-Jan-13 04:33N 63°11' E 007°50'8 8.3
2017-Jan-13 03:33N 63°16' E 008°06'28 8.6
2017-Jan-13 00:19N 63°29' E 009°00'6 8.2
2017-Jan-12 23:33N 63°32' E 009°13'8 7.7
2017-Jan-12 22:33N 63°40' E 009°15'79 7.7
2017-Jan-12 12:25N 64°44' E 010°58'7 8.4
2017-Jan-12 11:33N 64°49' E 011°10'9 8.6
2017-Jan-12 10:33N 64°55' E 011°24'9 8.7
2017-Jan-12 09:33N 65°01' E 011°40'7 7.4
2017-Jan-12 08:33N 65°07' E 011°49'8 7.6
2017-Jan-12 07:32N 65°15' E 011°55'67 8.1
2017-Jan-11 23:19N 66°17' E 012°55'7 8.6
2017-Jan-11 22:28N 66°24' E 012°58'47 7.9
2017-Jan-11 16:31N 67°05' E 013°55'8 8.6
2017-Jan-11 15:33N 67°12' E 014°06'9 9.2
2017-Jan-11 14:33N 67°20' E 014°19'9 8.6
2017-Jan-11 13:33N 67°28' E 014°28'118 8.3
2017-Jan-10 23:18N 69°06' E 017°27'7 8.9
2017-Jan-10 22:33N 69°08' E 017°44'  
2017-Jan-08 04:27N 69°19' E 017°59'8 8.7
2017-Jan-08 03:33N 69°11' E 018°01'9 9.1
2017-Jan-08 02:33N 69°08' E 017°38'13 8.9
2017-Jan-08 01:08N 68°59' E 017°12'18 9.3
2017-Jan-07 23:11N 68°44' E 016°44'91 8.5
2017-Jan-07 12:33N 67°28' E 014°29'9 8.8
2017-Jan-07 11:33N 67°20' E 014°20'9 9.0
2017-Jan-07 10:33N 67°13' E 014°08'10 9.7
2017-Jan-07 09:33N 67°04' E 013°54'10 9.3
2017-Jan-07 08:30N 66°58' E 013°35'29 7.4
2017-Jan-07 04:32N 66°32' E 012°58'9 8.8
2017-Jan-07 03:33N 66°24' E 012°59'  

Dump ship's entire track history